sensor_id;sensor_type;location;lat;lon;timestamp;P1;durP1;ratioP1;P2;durP2;ratioP2
70549;SDS011;58101;48.658;2.328;2023-01-13T00:00:57;4.80;;;1.10;;
70549;SDS011;58101;48.658;2.328;2023-01-13T00:03:23;4.20;;;0.90;;
70549;SDS011;58101;48.658;2.328;2023-01-13T00:05:48;7.68;;;0.93;;
70549;SDS011;58101;48.658;2.328;2023-01-13T00:08:14;4.65;;;0.90;;
70549;SDS011;58101;48.658;2.328;2023-01-13T00:10:40;3.60;;;0.90;;
70549;SDS011;58101;48.658;2.328;2023-01-13T00:13:05;3.50;;;0.75;;
70549;SDS011;58101;48.658;2.328;2023-01-13T00:15:31;4.00;;;0.90;;
70549;SDS011;58101;48.658;2.328;2023-01-13T00:17:57;2.45;;;0.68;;
70549;SDS011;58101;48.658;2.328;2023-01-13T00:20:23;3.72;;;0.70;;
70549;SDS011;58101;48.658;2.328;2023-01-13T00:22:48;4.43;;;0.93;;
70549;SDS011;58101;48.658;2.328;2023-01-13T00:25:14;3.58;;;0.80;;
70549;SDS011;58101;48.658;2.328;2023-01-13T00:27:40;3.20;;;0.80;;
70549;SDS011;58101;48.658;2.328;2023-01-13T00:30:06;4.22;;;0.80;;
70549;SDS011;58101;48.658;2.328;2023-01-13T00:32:32;3.83;;;0.80;;
70549;SDS011;58101;48.658;2.328;2023-01-13T00:34:58;4.03;;;0.70;;
70549;SDS011;58101;48.658;2.328;2023-01-13T00:37:24;3.15;;;0.80;;
70549;SDS011;58101;48.658;2.328;2023-01-13T00:39:50;3.38;;;0.77;;
70549;SDS011;58101;48.658;2.328;2023-01-13T00:42:16;4.30;;;0.73;;
70549;SDS011;58101;48.658;2.328;2023-01-13T00:45:01;3.15;;;0.70;;
70549;SDS011;58101;48.658;2.328;2023-01-13T00:47:27;3.97;;;0.80;;
70549;SDS011;58101;48.658;2.328;2023-01-13T00:49:53;4.72;;;0.70;;
70549;SDS011;58101;48.658;2.328;2023-01-13T00:52:19;5.03;;;0.88;;
70549;SDS011;58101;48.658;2.328;2023-01-13T00:54:44;5.05;;;0.90;;
70549;SDS011;58101;48.658;2.328;2023-01-13T00:57:10;3.72;;;0.57;;
70549;SDS011;58101;48.658;2.328;2023-01-13T00:59:35;2.45;;;0.60;;
70549;SDS011;58101;48.658;2.328;2023-01-13T01:02:01;4.00;;;0.60;;
70549;SDS011;58101;48.658;2.328;2023-01-13T01:04:27;2.72;;;0.40;;
70549;SDS011;58101;48.658;2.328;2023-01-13T01:06:52;3.40;;;0.50;;
70549;SDS011;58101;48.658;2.328;2023-01-13T01:09:18;2.65;;;0.35;;
70549;SDS011;58101;48.658;2.328;2023-01-13T01:11:43;2.90;;;0.50;;
70549;SDS011;58101;48.658;2.328;2023-01-13T01:14:10;4.38;;;0.45;;
70549;SDS011;58101;48.658;2.328;2023-01-13T01:16:37;3.13;;;0.38;;
70549;SDS011;58101;48.658;2.328;2023-01-13T01:19:04;3.78;;;0.60;;
70549;SDS011;58101;48.658;2.328;2023-01-13T01:21:30;4.40;;;0.52;;
70549;SDS011;58101;48.658;2.328;2023-01-13T01:23:58;6.47;;;0.80;;
70549;SDS011;58101;48.658;2.328;2023-01-13T01:26:25;3.92;;;0.60;;
70549;SDS011;58101;48.658;2.328;2023-01-13T01:28:52;3.40;;;0.50;;
70549;SDS011;58101;48.658;2.328;2023-01-13T01:31:21;5.38;;;1.05;;
70549;SDS011;58101;48.658;2.328;2023-01-13T01:33:49;6.60;;;1.02;;
70549;SDS011;58101;48.658;2.328;2023-01-13T01:36:15;4.60;;;0.60;;
70549;SDS011;58101;48.658;2.328;2023-01-13T01:38:43;5.50;;;1.00;;
70549;SDS011;58101;48.658;2.328;2023-01-13T01:41:13;5.30;;;0.68;;
70549;SDS011;58101;48.658;2.328;2023-01-13T01:43:46;7.75;;;0.95;;
70549;SDS011;58101;48.658;2.328;2023-01-13T01:46:25;6.75;;;1.00;;
70549;SDS011;58101;48.658;2.328;2023-01-13T01:48:52;5.03;;;0.90;;
70549;SDS011;58101;48.658;2.328;2023-01-13T01:51:21;7.35;;;0.88;;
70549;SDS011;58101;48.658;2.328;2023-01-13T01:53:47;6.68;;;0.88;;
70549;SDS011;58101;48.658;2.328;2023-01-13T01:56:13;5.85;;;0.77;;
70549;SDS011;58101;48.658;2.328;2023-01-13T01:58:45;6.85;;;0.73;;
70549;SDS011;58101;48.658;2.328;2023-01-13T02:01:15;6.50;;;0.90;;
70549;SDS011;58101;48.658;2.328;2023-01-13T02:03:42;6.47;;;0.90;;
70549;SDS011;58101;48.658;2.328;2023-01-13T02:06:10;11.25;;;1.10;;
70549;SDS011;58101;48.658;2.328;2023-01-13T02:08:37;6.65;;;0.90;;
70549;SDS011;58101;48.658;2.328;2023-01-13T02:11:05;4.40;;;0.70;;
70549;SDS011;58101;48.658;2.328;2023-01-13T02:13:51;4.78;;;0.77;;
70549;SDS011;58101;48.658;2.328;2023-01-13T02:16:18;5.20;;;0.65;;
70549;SDS011;58101;48.658;2.328;2023-01-13T02:18:52;10.18;;;1.00;;
70549;SDS011;58101;48.658;2.328;2023-01-13T02:28:04;6.32;;;0.80;;
70549;SDS011;58101;48.658;2.328;2023-01-13T02:31:05;7.00;;;0.88;;
70549;SDS011;58101;48.658;2.328;2023-01-13T02:34:06;8.55;;;1.08;;
70549;SDS011;58101;48.658;2.328;2023-01-13T02:40:17;3.10;;;0.50;;
70549;SDS011;58101;48.658;2.328;2023-01-13T02:42:24;1.80;;;0.35;;
70549;SDS011;58101;48.658;2.328;2023-01-13T02:45:22;5.20;;;0.70;;
70549;SDS011;58101;48.658;2.328;2023-01-13T02:47:57;3.72;;;0.60;;
70549;SDS011;58101;48.658;2.328;2023-01-13T02:50:33;5.65;;;0.90;;
70549;SDS011;58101;48.658;2.328;2023-01-13T02:53:05;8.40;;;0.90;;
70549;SDS011;58101;48.658;2.328;2023-01-13T02:55:40;7.43;;;1.00;;
70549;SDS011;58101;48.658;2.328;2023-01-13T02:58:11;9.30;;;0.95;;
70549;SDS011;58101;48.658;2.328;2023-01-13T03:00:40;4.30;;;0.68;;
70549;SDS011;58101;48.658;2.328;2023-01-13T03:05:32;5.03;;;0.63;;
70549;SDS011;58101;48.658;2.328;2023-01-13T03:21:12;7.68;;;1.38;;
70549;SDS011;58101;48.658;2.328;2023-01-13T03:24:01;6.53;;;1.05;;
70549;SDS011;58101;48.658;2.328;2023-01-13T03:26:30;7.97;;;1.00;;
70549;SDS011;58101;48.658;2.328;2023-01-13T03:29:17;5.38;;;0.80;;
70549;SDS011;58101;48.658;2.328;2023-01-13T03:31:55;7.55;;;0.82;;
70549;SDS011;58101;48.658;2.328;2023-01-13T03:34:33;7.70;;;1.05;;
70549;SDS011;58101;48.658;2.328;2023-01-13T03:37:04;9.48;;;0.80;;
70549;SDS011;58101;48.658;2.328;2023-01-13T03:39:34;7.63;;;0.80;;
70549;SDS011;58101;48.658;2.328;2023-01-13T03:42:08;6.22;;;1.10;;
70549;SDS011;58101;48.658;2.328;2023-01-13T03:44:39;7.18;;;0.88;;
70549;SDS011;58101;48.658;2.328;2023-01-13T03:47:33;9.02;;;0.88;;
70549;SDS011;58101;48.658;2.328;2023-01-13T03:50:25;8.07;;;0.90;;
70549;SDS011;58101;48.658;2.328;2023-01-13T03:52:55;9.18;;;0.82;;
70549;SDS011;58101;48.658;2.328;2023-01-13T03:55:26;10.80;;;1.63;;
70549;SDS011;58101;48.658;2.328;2023-01-13T03:58:06;9.10;;;1.00;;
70549;SDS011;58101;48.658;2.328;2023-01-13T04:01:18;9.63;;;1.25;;
70549;SDS011;58101;48.658;2.328;2023-01-13T04:04:02;5.60;;;1.10;;
70549;SDS011;58101;48.658;2.328;2023-01-13T04:06:34;5.38;;;0.90;;
70549;SDS011;58101;48.658;2.328;2023-01-13T04:09:10;6.40;;;1.00;;
70549;SDS011;58101;48.658;2.328;2023-01-13T04:11:42;5.03;;;1.00;;
70549;SDS011;58101;48.658;2.328;2023-01-13T04:14:13;9.45;;;1.10;;
70549;SDS011;58101;48.658;2.328;2023-01-13T04:16:43;8.77;;;0.93;;
70549;SDS011;58101;48.658;2.328;2023-01-13T04:19:08;7.85;;;1.00;;
70549;SDS011;58101;48.658;2.328;2023-01-13T04:21:34;4.50;;;1.13;;
70549;SDS011;58101;48.658;2.328;2023-01-13T04:24:00;6.35;;;1.00;;
70549;SDS011;58101;48.658;2.328;2023-01-13T04:26:25;8.18;;;1.00;;
70549;SDS011;58101;48.658;2.328;2023-01-13T04:28:51;4.18;;;0.80;;
70549;SDS011;58101;48.658;2.328;2023-01-13T04:31:19;4.25;;;0.75;;
70549;SDS011;58101;48.658;2.328;2023-01-13T04:33:44;4.28;;;0.70;;
70549;SDS011;58101;48.658;2.328;2023-01-13T04:36:10;5.75;;;0.80;;
70549;SDS011;58101;48.658;2.328;2023-01-13T04:38:36;5.03;;;0.77;;
70549;SDS011;58101;48.658;2.328;2023-01-13T04:41:01;5.95;;;0.88;;
70549;SDS011;58101;48.658;2.328;2023-01-13T04:43:27;6.50;;;0.95;;
70549;SDS011;58101;48.658;2.328;2023-01-13T04:45:52;9.27;;;0.90;;
70549;SDS011;58101;48.658;2.328;2023-01-13T04:48:18;5.47;;;0.80;;
70549;SDS011;58101;48.658;2.328;2023-01-13T04:50:44;7.50;;;0.80;;
70549;SDS011;58101;48.658;2.328;2023-01-13T04:53:09;5.28;;;1.10;;
70549;SDS011;58101;48.658;2.328;2023-01-13T04:55:35;6.13;;;0.98;;
70549;SDS011;58101;48.658;2.328;2023-01-13T04:58:10;4.97;;;0.77;;
70549;SDS011;58101;48.658;2.328;2023-01-13T05:00:35;9.07;;;1.40;;
70549;SDS011;58101;48.658;2.328;2023-01-13T05:03:02;6.20;;;0.93;;
70549;SDS011;58101;48.658;2.328;2023-01-13T05:05:28;7.32;;;1.20;;
70549;SDS011;58101;48.658;2.328;2023-01-13T05:07:54;5.18;;;0.80;;
70549;SDS011;58101;48.658;2.328;2023-01-13T05:10:20;9.70;;;0.98;;
70549;SDS011;58101;48.658;2.328;2023-01-13T05:12:46;5.75;;;0.80;;
70549;SDS011;58101;48.658;2.328;2023-01-13T05:15:30;6.75;;;0.88;;
70549;SDS011;58101;48.658;2.328;2023-01-13T05:18:14;7.15;;;1.00;;
70549;SDS011;58101;48.658;2.328;2023-01-13T05:20:41;7.80;;;1.10;;
70549;SDS011;58101;48.658;2.328;2023-01-13T05:23:07;8.50;;;1.08;;
70549;SDS011;58101;48.658;2.328;2023-01-13T05:25:51;9.40;;;1.35;;
70549;SDS011;58101;48.658;2.328;2023-01-13T05:28:17;6.85;;;0.90;;
70549;SDS011;58101;48.658;2.328;2023-01-13T05:30:43;7.88;;;1.10;;
70549;SDS011;58101;48.658;2.328;2023-01-13T05:33:11;6.45;;;1.08;;
70549;SDS011;58101;48.658;2.328;2023-01-13T05:35:39;9.90;;;0.90;;
70549;SDS011;58101;48.658;2.328;2023-01-13T05:38:06;8.88;;;1.45;;
70549;SDS011;58101;48.658;2.328;2023-01-13T05:40:32;5.60;;;0.90;;
70549;SDS011;58101;48.658;2.328;2023-01-13T05:43:17;9.32;;;1.27;;
70549;SDS011;58101;48.658;2.328;2023-01-13T05:45:45;6.75;;;1.13;;
70549;SDS011;58101;48.658;2.328;2023-01-13T05:48:12;9.98;;;1.30;;
70549;SDS011;58101;48.658;2.328;2023-01-13T05:50:38;11.57;;;1.50;;
70549;SDS011;58101;48.658;2.328;2023-01-13T05:53:04;8.15;;;1.27;;
70549;SDS011;58101;48.658;2.328;2023-01-13T05:55:30;8.30;;;1.20;;
70549;SDS011;58101;48.658;2.328;2023-01-13T05:57:58;10.77;;;1.33;;
70549;SDS011;58101;48.658;2.328;2023-01-13T06:00:24;10.15;;;1.42;;
70549;SDS011;58101;48.658;2.328;2023-01-13T06:02:50;8.40;;;1.23;;
70549;SDS011;58101;48.658;2.328;2023-01-13T06:05:16;12.35;;;1.30;;
70549;SDS011;58101;48.658;2.328;2023-01-13T06:07:41;9.80;;;1.38;;
70549;SDS011;58101;48.658;2.328;2023-01-13T06:10:07;11.52;;;1.42;;
70549;SDS011;58101;48.658;2.328;2023-01-13T06:12:33;7.63;;;1.27;;
70549;SDS011;58101;48.658;2.328;2023-01-13T06:14:59;9.02;;;1.10;;
70549;SDS011;58101;48.658;2.328;2023-01-13T06:17:25;15.63;;;1.80;;
70549;SDS011;58101;48.658;2.328;2023-01-13T06:19:50;11.43;;;1.95;;
70549;SDS011;58101;48.658;2.328;2023-01-13T06:24:45;9.98;;;1.63;;
70549;SDS011;58101;48.658;2.328;2023-01-13T06:27:12;7.07;;;1.10;;
70549;SDS011;58101;48.658;2.328;2023-01-13T06:29:39;9.82;;;1.20;;
70549;SDS011;58101;48.658;2.328;2023-01-13T06:32:06;11.32;;;1.67;;
70549;SDS011;58101;48.658;2.328;2023-01-13T06:34:36;18.02;;;1.73;;
70549;SDS011;58101;48.658;2.328;2023-01-13T06:39:29;7.32;;;1.42;;
70549;SDS011;58101;48.658;2.328;2023-01-13T06:41:56;9.70;;;1.00;;
70549;SDS011;58101;48.658;2.328;2023-01-13T06:44:41;11.07;;;1.33;;
70549;SDS011;58101;48.658;2.328;2023-01-13T06:47:09;6.50;;;1.08;;
70549;SDS011;58101;48.658;2.328;2023-01-13T06:49:34;15.95;;;1.65;;
70549;SDS011;58101;48.658;2.328;2023-01-13T06:52:00;10.30;;;1.27;;
70549;SDS011;58101;48.658;2.328;2023-01-13T06:54:26;9.93;;;1.65;;
70549;SDS011;58101;48.658;2.328;2023-01-13T06:56:51;8.77;;;1.25;;
70549;SDS011;58101;48.658;2.328;2023-01-13T06:59:17;8.68;;;1.30;;
70549;SDS011;58101;48.658;2.328;2023-01-13T07:01:43;10.77;;;1.35;;
70549;SDS011;58101;48.658;2.328;2023-01-13T07:04:08;10.88;;;1.60;;
70549;SDS011;58101;48.658;2.328;2023-01-13T07:06:34;13.18;;;1.92;;
70549;SDS011;58101;48.658;2.328;2023-01-13T07:08:59;10.23;;;1.42;;
70549;SDS011;58101;48.658;2.328;2023-01-13T07:11:25;13.05;;;1.88;;
70549;SDS011;58101;48.658;2.328;2023-01-13T07:13:51;6.55;;;1.20;;
70549;SDS011;58101;48.658;2.328;2023-01-13T07:16:35;11.40;;;1.50;;
70549;SDS011;58101;48.658;2.328;2023-01-13T07:19:01;12.45;;;1.73;;
70549;SDS011;58101;48.658;2.328;2023-01-13T07:21:26;14.15;;;1.80;;
70549;SDS011;58101;48.658;2.328;2023-01-13T07:23:52;10.30;;;1.50;;
70549;SDS011;58101;48.658;2.328;2023-01-13T07:26:17;7.78;;;1.33;;
70549;SDS011;58101;48.658;2.328;2023-01-13T07:28:43;13.05;;;1.77;;
70549;SDS011;58101;48.658;2.328;2023-01-13T07:31:13;9.40;;;1.55;;
70549;SDS011;58101;48.658;2.328;2023-01-13T07:33:40;14.02;;;1.80;;
70549;SDS011;58101;48.658;2.328;2023-01-13T07:36:09;12.45;;;1.40;;
70549;SDS011;58101;48.658;2.328;2023-01-13T07:38:35;15.88;;;1.80;;
70549;SDS011;58101;48.658;2.328;2023-01-13T07:41:02;15.15;;;1.85;;
70549;SDS011;58101;48.658;2.328;2023-01-13T07:43:48;12.13;;;1.75;;
70549;SDS011;58101;48.658;2.328;2023-01-13T07:46:14;10.68;;;1.48;;
70549;SDS011;58101;48.658;2.328;2023-01-13T07:48:39;14.88;;;2.45;;
70549;SDS011;58101;48.658;2.328;2023-01-13T07:51:08;12.07;;;1.63;;
70549;SDS011;58101;48.658;2.328;2023-01-13T07:53:36;12.40;;;1.65;;
70549;SDS011;58101;48.658;2.328;2023-01-13T07:56:03;16.70;;;2.10;;
70549;SDS011;58101;48.658;2.328;2023-01-13T07:58:30;12.48;;;1.63;;
70549;SDS011;58101;48.658;2.328;2023-01-13T08:00:57;10.18;;;1.52;;
70549;SDS011;58101;48.658;2.328;2023-01-13T08:03:23;11.80;;;1.73;;
70549;SDS011;58101;48.658;2.328;2023-01-13T08:05:50;13.55;;;1.50;;
70549;SDS011;58101;48.658;2.328;2023-01-13T08:08:16;11.60;;;1.95;;
70549;SDS011;58101;48.658;2.328;2023-01-13T08:10:42;14.27;;;2.83;;
70549;SDS011;58101;48.658;2.328;2023-01-13T08:13:16;12.15;;;1.55;;
70549;SDS011;58101;48.658;2.328;2023-01-13T08:15:49;16.05;;;1.88;;
70549;SDS011;58101;48.658;2.328;2023-01-13T08:18:17;13.18;;;1.90;;
70549;SDS011;58101;48.658;2.328;2023-01-13T08:20:46;12.95;;;1.40;;
70549;SDS011;58101;48.658;2.328;2023-01-13T08:23:13;9.70;;;1.50;;
70549;SDS011;58101;48.658;2.328;2023-01-13T08:25:39;15.45;;;2.67;;
70549;SDS011;58101;48.658;2.328;2023-01-13T08:28:05;13.38;;;2.00;;
70549;SDS011;58101;48.658;2.328;2023-01-13T08:30:30;11.40;;;1.70;;
70549;SDS011;58101;48.658;2.328;2023-01-13T08:32:56;12.27;;;1.88;;
70549;SDS011;58101;48.658;2.328;2023-01-13T08:35:22;16.30;;;1.83;;
70549;SDS011;58101;48.658;2.328;2023-01-13T08:37:47;20.63;;;1.98;;
70549;SDS011;58101;48.658;2.328;2023-01-13T08:40:15;14.73;;;1.70;;
70549;SDS011;58101;48.658;2.328;2023-01-13T08:42:41;15.05;;;1.70;;
70549;SDS011;58101;48.658;2.328;2023-01-13T08:45:07;15.75;;;1.85;;
70549;SDS011;58101;48.658;2.328;2023-01-13T08:47:33;23.27;;;2.75;;
70549;SDS011;58101;48.658;2.328;2023-01-13T08:49:58;15.98;;;2.33;;
70549;SDS011;58101;48.658;2.328;2023-01-13T08:52:24;13.40;;;1.80;;
70549;SDS011;58101;48.658;2.328;2023-01-13T08:54:50;13.55;;;2.40;;
70549;SDS011;58101;48.658;2.328;2023-01-13T08:57:16;18.88;;;2.60;;
70549;SDS011;58101;48.658;2.328;2023-01-13T08:59:43;17.17;;;2.65;;
70549;SDS011;58101;48.658;2.328;2023-01-13T09:02:17;10.95;;;1.80;;
70549;SDS011;58101;48.658;2.328;2023-01-13T09:04:44;14.43;;;1.70;;
70549;SDS011;58101;48.658;2.328;2023-01-13T09:07:10;14.48;;;1.88;;
70549;SDS011;58101;48.658;2.328;2023-01-13T09:09:36;14.80;;;1.90;;
70549;SDS011;58101;48.658;2.328;2023-01-13T09:12:03;12.38;;;2.15;;
70549;SDS011;58101;48.658;2.328;2023-01-13T09:14:47;12.68;;;1.85;;
70549;SDS011;58101;48.658;2.328;2023-01-13T09:17:13;11.80;;;1.70;;
70549;SDS011;58101;48.658;2.328;2023-01-13T09:19:39;14.73;;;2.03;;
70549;SDS011;58101;48.658;2.328;2023-01-13T09:22:05;10.50;;;1.50;;
70549;SDS011;58101;48.658;2.328;2023-01-13T09:24:31;16.00;;;1.75;;
70549;SDS011;58101;48.658;2.328;2023-01-13T09:26:57;12.60;;;2.00;;
70549;SDS011;58101;48.658;2.328;2023-01-13T09:29:23;14.88;;;2.20;;
70549;SDS011;58101;48.658;2.328;2023-01-13T09:31:48;14.05;;;1.55;;
70549;SDS011;58101;48.658;2.328;2023-01-13T09:34:15;9.82;;;1.52;;
70549;SDS011;58101;48.658;2.328;2023-01-13T09:37:01;11.82;;;2.25;;
70549;SDS011;58101;48.658;2.328;2023-01-13T09:41:54;12.25;;;1.60;;
70549;SDS011;58101;48.658;2.328;2023-01-13T09:47:08;12.98;;;2.45;;
70549;SDS011;58101;48.658;2.328;2023-01-13T09:49:44;14.05;;;2.08;;
70549;SDS011;58101;48.658;2.328;2023-01-13T09:52:16;11.25;;;1.83;;
70549;SDS011;58101;48.658;2.328;2023-01-13T09:54:47;13.75;;;2.90;;
70549;SDS011;58101;48.658;2.328;2023-01-13T09:57:19;10.68;;;1.50;;
70549;SDS011;58101;48.658;2.328;2023-01-13T09:59:46;10.73;;;1.98;;
70549;SDS011;58101;48.658;2.328;2023-01-13T10:05:21;19.95;;;2.50;;
70549;SDS011;58101;48.658;2.328;2023-01-13T10:07:56;10.95;;;1.80;;
70549;SDS011;58101;48.658;2.328;2023-01-13T10:10:41;14.50;;;1.80;;
70549;SDS011;58101;48.658;2.328;2023-01-13T10:18:38;11.05;;;1.80;;
70549;SDS011;58101;48.658;2.328;2023-01-13T10:26:44;10.75;;;1.60;;
70549;SDS011;58101;48.658;2.328;2023-01-13T10:29:23;11.73;;;1.70;;
70549;SDS011;58101;48.658;2.328;2023-01-13T10:31:53;10.80;;;1.38;;
70549;SDS011;58101;48.658;2.328;2023-01-13T10:34:20;12.20;;;1.48;;
70549;SDS011;58101;48.658;2.328;2023-01-13T10:39:43;12.32;;;1.70;;
70549;SDS011;58101;48.658;2.328;2023-01-13T10:42:17;15.30;;;2.00;;
70549;SDS011;58101;48.658;2.328;2023-01-13T10:44:56;12.93;;;1.77;;
70549;SDS011;58101;48.658;2.328;2023-01-13T10:47:27;10.85;;;1.45;;
70549;SDS011;58101;48.658;2.328;2023-01-13T10:50:17;9.10;;;1.58;;
70549;SDS011;58101;48.658;2.328;2023-01-13T10:53:00;12.38;;;2.00;;
70549;SDS011;58101;48.658;2.328;2023-01-13T10:55:28;11.68;;;1.60;;
70549;SDS011;58101;48.658;2.328;2023-01-13T10:58:10;10.98;;;1.63;;
70549;SDS011;58101;48.658;2.328;2023-01-13T11:00:37;13.85;;;1.98;;
70549;SDS011;58101;48.658;2.328;2023-01-13T11:03:14;10.80;;;1.88;;
70549;SDS011;58101;48.658;2.328;2023-01-13T11:08:17;8.35;;;1.77;;
70549;SDS011;58101;48.658;2.328;2023-01-13T11:10:47;9.57;;;1.65;;
70549;SDS011;58101;48.658;2.328;2023-01-13T11:13:18;9.32;;;1.58;;
70549;SDS011;58101;48.658;2.328;2023-01-13T11:18:39;11.40;;;1.60;;
70549;SDS011;58101;48.658;2.328;2023-01-13T11:21:32;9.65;;;1.90;;
70549;SDS011;58101;48.658;2.328;2023-01-13T11:24:05;11.75;;;1.92;;
70549;SDS011;58101;48.658;2.328;2023-01-13T11:26:58;9.52;;;1.55;;
70549;SDS011;58101;48.658;2.328;2023-01-13T11:29:30;10.85;;;1.67;;
70549;SDS011;58101;48.658;2.328;2023-01-13T11:32:20;12.10;;;1.65;;
70549;SDS011;58101;48.658;2.328;2023-01-13T11:34:55;11.15;;;1.60;;
70549;SDS011;58101;48.658;2.328;2023-01-13T11:37:32;12.43;;;2.97;;
70549;SDS011;58101;48.658;2.328;2023-01-13T11:40:04;13.82;;;2.65;;
70549;SDS011;58101;48.658;2.328;2023-01-13T11:45:13;10.65;;;1.45;;
70549;SDS011;58101;48.658;2.328;2023-01-13T11:47:53;10.75;;;1.42;;
70549;SDS011;58101;48.658;2.328;2023-01-13T12:06:49;7.20;;;1.35;;
70549;SDS011;58101;48.658;2.328;2023-01-13T12:21:01;10.80;;;1.50;;
70549;SDS011;58101;48.658;2.328;2023-01-13T12:26:30;10.20;;;1.30;;
70549;SDS011;58101;48.658;2.328;2023-01-13T12:31:28;11.35;;;1.80;;
70549;SDS011;58101;48.658;2.328;2023-01-13T12:47:44;13.07;;;2.00;;
70549;SDS011;58101;48.658;2.328;2023-01-13T12:50:55;11.95;;;1.77;;
70549;SDS011;58101;48.658;2.328;2023-01-13T12:53:00;12.00;;;1.70;;
70549;SDS011;58101;48.658;2.328;2023-01-13T12:55:50;12.52;;;1.98;;
70549;SDS011;58101;48.658;2.328;2023-01-13T12:58:39;17.35;;;1.67;;
70549;SDS011;58101;48.658;2.328;2023-01-13T13:01:11;9.90;;;1.40;;
70549;SDS011;58101;48.658;2.328;2023-01-13T13:03:38;11.45;;;1.33;;
70549;SDS011;58101;48.658;2.328;2023-01-13T13:09:05;11.82;;;1.52;;
70549;SDS011;58101;48.658;2.328;2023-01-13T13:11:52;11.63;;;1.60;;
70549;SDS011;58101;48.658;2.328;2023-01-13T13:17:02;15.00;;;1.73;;
70549;SDS011;58101;48.658;2.328;2023-01-13T13:25:23;13.85;;;1.50;;
70549;SDS011;58101;48.658;2.328;2023-01-13T13:41:18;10.55;;;1.65;;
70549;SDS011;58101;48.658;2.328;2023-01-13T13:44:10;11.80;;;2.00;;
70549;SDS011;58101;48.658;2.328;2023-01-13T13:47:00;13.27;;;1.55;;
70549;SDS011;58101;48.658;2.328;2023-01-13T13:49:50;12.27;;;1.70;;
70549;SDS011;58101;48.658;2.328;2023-01-13T13:55:22;15.23;;;1.60;;
70549;SDS011;58101;48.658;2.328;2023-01-13T13:57:52;10.18;;;1.58;;
70549;SDS011;58101;48.658;2.328;2023-01-13T14:00:25;12.70;;;2.00;;
70549;SDS011;58101;48.658;2.328;2023-01-13T14:03:00;12.48;;;1.55;;
70549;SDS011;58101;48.658;2.328;2023-01-13T14:05:30;11.45;;;1.40;;
70549;SDS011;58101;48.658;2.328;2023-01-13T14:08:16;11.77;;;1.42;;
70549;SDS011;58101;48.658;2.328;2023-01-13T14:10:42;10.27;;;1.27;;
70549;SDS011;58101;48.658;2.328;2023-01-13T14:15:47;11.10;;;1.52;;
70549;SDS011;58101;48.658;2.328;2023-01-13T14:18:18;11.52;;;1.52;;
70549;SDS011;58101;48.658;2.328;2023-01-13T14:20:58;12.48;;;1.42;;
70549;SDS011;58101;48.658;2.328;2023-01-13T14:23:25;8.43;;;1.23;;
70549;SDS011;58101;48.658;2.328;2023-01-13T14:25:53;14.55;;;1.52;;
70549;SDS011;58101;48.658;2.328;2023-01-13T14:28:20;12.60;;;1.60;;
70549;SDS011;58101;48.658;2.328;2023-01-13T14:30:51;11.25;;;1.70;;
70549;SDS011;58101;48.658;2.328;2023-01-13T14:39:25;10.35;;;1.58;;
70549;SDS011;58101;48.658;2.328;2023-01-13T14:44:21;13.75;;;1.70;;
70549;SDS011;58101;48.658;2.328;2023-01-13T14:46:48;10.75;;;1.45;;
70549;SDS011;58101;48.658;2.328;2023-01-13T14:49:19;12.38;;;1.80;;
70549;SDS011;58101;48.658;2.328;2023-01-13T14:51:53;13.00;;;1.60;;
70549;SDS011;58101;48.658;2.328;2023-01-13T14:54:42;12.65;;;1.60;;
70549;SDS011;58101;48.658;2.328;2023-01-13T15:07:48;11.90;;;1.63;;
70549;SDS011;58101;48.658;2.328;2023-01-13T15:10:23;14.82;;;3.05;;
70549;SDS011;58101;48.658;2.328;2023-01-13T15:12:49;15.75;;;2.35;;
70549;SDS011;58101;48.658;2.328;2023-01-13T15:17:51;13.18;;;1.55;;
70549;SDS011;58101;48.658;2.328;2023-01-13T15:20:18;10.90;;;1.52;;
70549;SDS011;58101;48.658;2.328;2023-01-13T15:22:46;12.38;;;1.70;;
70549;SDS011;58101;48.658;2.328;2023-01-13T15:27:39;15.35;;;2.22;;
70549;SDS011;58101;48.658;2.328;2023-01-13T15:30:15;7.70;;;1.60;;
70549;SDS011;58101;48.658;2.328;2023-01-13T15:32:46;13.15;;;1.98;;
70549;SDS011;58101;48.658;2.328;2023-01-13T15:35:12;13.32;;;1.80;;
70549;SDS011;58101;48.658;2.328;2023-01-13T15:37:40;13.30;;;1.75;;
70549;SDS011;58101;48.658;2.328;2023-01-13T15:42:39;10.20;;;1.65;;
70549;SDS011;58101;48.658;2.328;2023-01-13T15:45:24;11.20;;;1.70;;
70549;SDS011;58101;48.658;2.328;2023-01-13T15:48:08;11.88;;;1.80;;
70549;SDS011;58101;48.658;2.328;2023-01-13T15:50:34;14.82;;;1.88;;
70549;SDS011;58101;48.658;2.328;2023-01-13T15:52:59;13.38;;;1.80;;
70549;SDS011;58101;48.658;2.328;2023-01-13T15:55:25;13.05;;;1.90;;
70549;SDS011;58101;48.658;2.328;2023-01-13T15:57:50;10.55;;;1.88;;
70549;SDS011;58101;48.658;2.328;2023-01-13T16:00:17;10.15;;;1.88;;
70549;SDS011;58101;48.658;2.328;2023-01-13T16:02:46;10.13;;;1.90;;
70549;SDS011;58101;48.658;2.328;2023-01-13T16:05:15;10.05;;;1.98;;
70549;SDS011;58101;48.658;2.328;2023-01-13T16:07:41;14.95;;;1.90;;
70549;SDS011;58101;48.658;2.328;2023-01-13T16:10:14;13.98;;;1.80;;
70549;SDS011;58101;48.658;2.328;2023-01-13T16:12:44;13.05;;;1.85;;
70549;SDS011;58101;48.658;2.328;2023-01-13T16:15:11;12.88;;;1.85;;
70549;SDS011;58101;48.658;2.328;2023-01-13T16:17:41;9.60;;;1.58;;
70549;SDS011;58101;48.658;2.328;2023-01-13T16:20:18;9.63;;;1.73;;
70549;SDS011;58101;48.658;2.328;2023-01-13T16:22:44;10.35;;;1.55;;
70549;SDS011;58101;48.658;2.328;2023-01-13T16:27:46;12.55;;;2.03;;
70549;SDS011;58101;48.658;2.328;2023-01-13T16:30:17;8.63;;;1.40;;
70549;SDS011;58101;48.658;2.328;2023-01-13T16:32:47;8.98;;;1.50;;
70549;SDS011;58101;48.658;2.328;2023-01-13T16:35:13;13.65;;;1.23;;
70549;SDS011;58101;48.658;2.328;2023-01-13T16:37:39;12.00;;;1.70;;
70549;SDS011;58101;48.658;2.328;2023-01-13T16:40:04;8.65;;;1.80;;
70549;SDS011;58101;48.658;2.328;2023-01-13T16:42:30;10.30;;;1.70;;
70549;SDS011;58101;48.658;2.328;2023-01-13T16:44:56;10.02;;;1.58;;
70549;SDS011;58101;48.658;2.328;2023-01-13T16:47:22;8.60;;;1.38;;
70549;SDS011;58101;48.658;2.328;2023-01-13T16:49:48;9.18;;;1.40;;
70549;SDS011;58101;48.658;2.328;2023-01-13T16:52:14;11.52;;;1.63;;
70549;SDS011;58101;48.658;2.328;2023-01-13T16:54:40;11.85;;;1.70;;
70549;SDS011;58101;48.658;2.328;2023-01-13T16:57:05;10.00;;;1.50;;
70549;SDS011;58101;48.658;2.328;2023-01-13T16:59:31;11.27;;;1.83;;
70549;SDS011;58101;48.658;2.328;2023-01-13T17:01:57;10.20;;;1.65;;
70549;SDS011;58101;48.658;2.328;2023-01-13T17:04:23;9.45;;;1.80;;
70549;SDS011;58101;48.658;2.328;2023-01-13T17:09:15;9.70;;;2.30;;
70549;SDS011;58101;48.658;2.328;2023-01-13T17:11:42;12.50;;;2.15;;
70549;SDS011;58101;48.658;2.328;2023-01-13T17:14:08;15.48;;;2.70;;
70549;SDS011;58101;48.658;2.328;2023-01-13T17:16:34;12.68;;;2.30;;
70549;SDS011;58101;48.658;2.328;2023-01-13T17:19:00;12.93;;;2.40;;
70549;SDS011;58101;48.658;2.328;2023-01-13T17:21:26;13.93;;;2.60;;
70549;SDS011;58101;48.658;2.328;2023-01-13T17:23:51;11.60;;;3.00;;
70549;SDS011;58101;48.658;2.328;2023-01-13T17:28:51;12.75;;;3.10;;
70549;SDS011;58101;48.658;2.328;2023-01-13T17:31:17;16.63;;;3.80;;
70549;SDS011;58101;48.658;2.328;2023-01-13T17:33:42;15.88;;;3.70;;
70549;SDS011;58101;48.658;2.328;2023-01-13T17:36:08;14.40;;;3.80;;
70549;SDS011;58101;48.658;2.328;2023-01-13T17:38:34;14.75;;;4.00;;
70549;SDS011;58101;48.658;2.328;2023-01-13T17:41:00;20.55;;;4.07;;
70549;SDS011;58101;48.658;2.328;2023-01-13T17:43:28;16.45;;;4.50;;
70549;SDS011;58101;48.658;2.328;2023-01-13T17:45:54;19.88;;;4.60;;
70549;SDS011;58101;48.658;2.328;2023-01-13T17:50:47;15.88;;;4.50;;
70549;SDS011;58101;48.658;2.328;2023-01-13T17:53:14;16.67;;;5.07;;